sensor_id;sensor_type;location;lat;lon;timestamp;P1;durP1;ratioP1;P2;durP2;ratioP2
20478;SDS011;10398;52.490;13.434;2022-10-31T00:02:08;37.87;;;17.40;;
20478;SDS011;10398;52.490;13.434;2022-10-31T00:04:33;35.20;;;17.83;;
20478;SDS011;10398;52.490;13.434;2022-10-31T00:06:59;33.57;;;17.07;;
20478;SDS011;10398;52.490;13.434;2022-10-31T00:09:24;34.43;;;17.73;;
20478;SDS011;10398;52.490;13.434;2022-10-31T00:11:50;41.23;;;19.10;;
20478;SDS011;10398;52.490;13.434;2022-10-31T00:14:16;35.43;;;17.63;;
20478;SDS011;10398;52.490;13.434;2022-10-31T00:16:41;38.13;;;20.23;;
20478;SDS011;10398;52.490;13.434;2022-10-31T00:19:07;42.23;;;19.57;;
20478;SDS011;10398;52.490;13.434;2022-10-31T00:21:33;39.40;;;18.43;;
20478;SDS011;10398;52.490;13.434;2022-10-31T00:24:00;41.47;;;20.00;;
20478;SDS011;10398;52.490;13.434;2022-10-31T00:26:27;35.60;;;17.80;;
20478;SDS011;10398;52.490;13.434;2022-10-31T00:28:53;39.27;;;18.03;;
20478;SDS011;10398;52.490;13.434;2022-10-31T00:31:19;34.67;;;16.17;;
20478;SDS011;10398;52.490;13.434;2022-10-31T00:33:44;33.90;;;17.23;;
20478;SDS011;10398;52.490;13.434;2022-10-31T00:36:11;34.70;;;17.37;;
20478;SDS011;10398;52.490;13.434;2022-10-31T00:38:42;29.23;;;12.93;;
20478;SDS011;10398;52.490;13.434;2022-10-31T00:41:09;36.70;;;16.33;;
20478;SDS011;10398;52.490;13.434;2022-10-31T00:43:35;24.33;;;12.80;;
20478;SDS011;10398;52.490;13.434;2022-10-31T00:46:00;22.43;;;11.20;;
20478;SDS011;10398;52.490;13.434;2022-10-31T00:48:26;20.47;;;11.50;;
20478;SDS011;10398;52.490;13.434;2022-10-31T00:50:52;22.50;;;10.80;;
20478;SDS011;10398;52.490;13.434;2022-10-31T00:53:17;22.50;;;11.03;;
20478;SDS011;10398;52.490;13.434;2022-10-31T00:55:43;22.03;;;9.23;;
20478;SDS011;10398;52.490;13.434;2022-10-31T00:58:08;26.10;;;10.43;;
20478;SDS011;10398;52.490;13.434;2022-10-31T01:00:34;26.70;;;10.23;;
20478;SDS011;10398;52.490;13.434;2022-10-31T01:03:00;29.23;;;10.20;;
20478;SDS011;10398;52.490;13.434;2022-10-31T01:05:26;19.67;;;9.57;;
20478;SDS011;10398;52.490;13.434;2022-10-31T01:07:51;22.93;;;10.63;;
20478;SDS011;10398;52.490;13.434;2022-10-31T01:10:17;20.80;;;9.97;;
20478;SDS011;10398;52.490;13.434;2022-10-31T01:12:44;24.10;;;9.53;;
20478;SDS011;10398;52.490;13.434;2022-10-31T01:15:12;21.73;;;9.83;;
20478;SDS011;10398;52.490;13.434;2022-10-31T01:17:39;24.07;;;9.07;;
20478;SDS011;10398;52.490;13.434;2022-10-31T01:20:05;22.00;;;8.90;;
20478;SDS011;10398;52.490;13.434;2022-10-31T01:22:31;19.03;;;9.00;;
20478;SDS011;10398;52.490;13.434;2022-10-31T01:24:58;19.73;;;8.90;;
20478;SDS011;10398;52.490;13.434;2022-10-31T01:27:23;18.80;;;8.83;;
20478;SDS011;10398;52.490;13.434;2022-10-31T01:29:49;20.30;;;9.20;;
20478;SDS011;10398;52.490;13.434;2022-10-31T01:32:14;19.10;;;8.47;;
20478;SDS011;10398;52.490;13.434;2022-10-31T01:34:40;22.83;;;8.47;;
20478;SDS011;10398;52.490;13.434;2022-10-31T01:37:05;15.93;;;7.80;;
20478;SDS011;10398;52.490;13.434;2022-10-31T01:39:31;20.27;;;8.50;;
20478;SDS011;10398;52.490;13.434;2022-10-31T01:41:57;18.43;;;9.10;;
20478;SDS011;10398;52.490;13.434;2022-10-31T01:49:15;17.53;;;8.57;;
20478;SDS011;10398;52.490;13.434;2022-10-31T01:52:08;14.67;;;7.77;;
20478;SDS011;10398;52.490;13.434;2022-10-31T01:54:42;20.90;;;8.67;;
20478;SDS011;10398;52.490;13.434;2022-10-31T01:57:13;22.07;;;8.70;;
20478;SDS011;10398;52.490;13.434;2022-10-31T01:59:42;21.77;;;8.40;;
20478;SDS011;10398;52.490;13.434;2022-10-31T02:02:11;17.13;;;8.60;;
20478;SDS011;10398;52.490;13.434;2022-10-31T02:04:39;20.57;;;8.47;;
20478;SDS011;10398;52.490;13.434;2022-10-31T02:07:10;23.03;;;8.43;;
20478;SDS011;10398;52.490;13.434;2022-10-31T02:09:47;19.20;;;8.03;;
20478;SDS011;10398;52.490;13.434;2022-10-31T02:12:14;16.33;;;8.47;;
20478;SDS011;10398;52.490;13.434;2022-10-31T02:14:41;21.53;;;8.40;;
20478;SDS011;10398;52.490;13.434;2022-10-31T02:17:07;18.77;;;8.17;;
20478;SDS011;10398;52.490;13.434;2022-10-31T02:22:06;13.33;;;7.73;;
20478;SDS011;10398;52.490;13.434;2022-10-31T02:30:23;18.17;;;8.10;;
20478;SDS011;10398;52.490;13.434;2022-10-31T02:32:54;16.70;;;8.20;;
20478;SDS011;10398;52.490;13.434;2022-10-31T02:38:23;16.73;;;7.67;;
20478;SDS011;10398;52.490;13.434;2022-10-31T02:40:59;21.00;;;8.27;;
20478;SDS011;10398;52.490;13.434;2022-10-31T02:49:22;16.87;;;8.20;;
20478;SDS011;10398;52.490;13.434;2022-10-31T02:51:57;14.40;;;7.20;;
20478;SDS011;10398;52.490;13.434;2022-10-31T02:54:24;15.23;;;7.90;;
20478;SDS011;10398;52.490;13.434;2022-10-31T02:56:53;16.67;;;8.37;;
20478;SDS011;10398;52.490;13.434;2022-10-31T02:59:24;14.93;;;7.80;;
20478;SDS011;10398;52.490;13.434;2022-10-31T03:04:33;14.17;;;8.10;;
20478;SDS011;10398;52.490;13.434;2022-10-31T03:10:08;14.43;;;7.33;;
20478;SDS011;10398;52.490;13.434;2022-10-31T03:12:40;13.07;;;7.17;;
20478;SDS011;10398;52.490;13.434;2022-10-31T03:15:19;18.90;;;7.20;;
20478;SDS011;10398;52.490;13.434;2022-10-31T03:20:26;17.17;;;8.63;;
20478;SDS011;10398;52.490;13.434;2022-10-31T03:22:57;14.60;;;7.40;;
20478;SDS011;10398;52.490;13.434;2022-10-31T03:25:24;21.27;;;7.70;;
20478;SDS011;10398;52.490;13.434;2022-10-31T03:27:51;20.83;;;7.67;;
20478;SDS011;10398;52.490;13.434;2022-10-31T03:30:17;16.63;;;7.60;;
20478;SDS011;10398;52.490;13.434;2022-10-31T03:32:44;14.47;;;7.77;;
20478;SDS011;10398;52.490;13.434;2022-10-31T03:35:14;18.03;;;7.20;;
20478;SDS011;10398;52.490;13.434;2022-10-31T03:37:42;16.57;;;7.90;;
20478;SDS011;10398;52.490;13.434;2022-10-31T03:40:09;15.50;;;7.40;;
20478;SDS011;10398;52.490;13.434;2022-10-31T03:42:38;14.00;;;7.33;;
20478;SDS011;10398;52.490;13.434;2022-10-31T03:45:06;16.10;;;7.40;;
20478;SDS011;10398;52.490;13.434;2022-10-31T03:47:33;18.13;;;7.70;;
20478;SDS011;10398;52.490;13.434;2022-10-31T03:50:01;17.40;;;7.30;;
20478;SDS011;10398;52.490;13.434;2022-10-31T03:55:18;17.33;;;7.23;;
20478;SDS011;10398;52.490;13.434;2022-10-31T04:00:34;14.07;;;6.60;;
20478;SDS011;10398;52.490;13.434;2022-10-31T04:03:10;11.47;;;6.40;;
20478;SDS011;10398;52.490;13.434;2022-10-31T04:05:39;12.57;;;6.20;;
20478;SDS011;10398;52.490;13.434;2022-10-31T04:08:08;15.17;;;6.87;;
20478;SDS011;10398;52.490;13.434;2022-10-31T04:10:37;16.37;;;7.27;;
20478;SDS011;10398;52.490;13.434;2022-10-31T04:13:09;16.60;;;7.20;;
20478;SDS011;10398;52.490;13.434;2022-10-31T04:15:38;17.13;;;7.03;;
20478;SDS011;10398;52.490;13.434;2022-10-31T04:18:07;17.30;;;7.13;;
20478;SDS011;10398;52.490;13.434;2022-10-31T04:20:34;12.73;;;6.40;;
20478;SDS011;10398;52.490;13.434;2022-10-31T04:23:00;13.47;;;6.87;;
20478;SDS011;10398;52.490;13.434;2022-10-31T04:25:27;20.37;;;7.20;;
20478;SDS011;10398;52.490;13.434;2022-10-31T04:27:53;11.50;;;6.27;;
20478;SDS011;10398;52.490;13.434;2022-10-31T04:30:19;15.20;;;7.00;;
20478;SDS011;10398;52.490;13.434;2022-10-31T04:32:44;14.53;;;6.63;;
20478;SDS011;10398;52.490;13.434;2022-10-31T04:35:10;15.07;;;6.67;;
20478;SDS011;10398;52.490;13.434;2022-10-31T04:37:36;19.73;;;6.70;;
20478;SDS011;10398;52.490;13.434;2022-10-31T04:40:02;14.10;;;6.60;;
20478;SDS011;10398;52.490;13.434;2022-10-31T04:42:29;15.50;;;6.97;;
20478;SDS011;10398;52.490;13.434;2022-10-31T04:44:55;15.27;;;6.90;;
20478;SDS011;10398;52.490;13.434;2022-10-31T04:47:21;15.80;;;6.53;;
20478;SDS011;10398;52.490;13.434;2022-10-31T04:49:46;13.53;;;6.03;;
20478;SDS011;10398;52.490;13.434;2022-10-31T04:52:12;13.07;;;6.60;;
20478;SDS011;10398;52.490;13.434;2022-10-31T04:54:38;18.47;;;7.27;;
20478;SDS011;10398;52.490;13.434;2022-10-31T04:57:03;19.03;;;7.60;;
20478;SDS011;10398;52.490;13.434;2022-10-31T04:59:29;15.47;;;7.13;;
20478;SDS011;10398;52.490;13.434;2022-10-31T05:01:55;15.50;;;7.80;;
20478;SDS011;10398;52.490;13.434;2022-10-31T05:04:20;16.37;;;6.97;;
20478;SDS011;10398;52.490;13.434;2022-10-31T05:06:46;12.27;;;7.03;;
20478;SDS011;10398;52.490;13.434;2022-10-31T05:09:11;16.53;;;7.67;;
20478;SDS011;10398;52.490;13.434;2022-10-31T05:11:37;16.00;;;7.07;;
20478;SDS011;10398;52.490;13.434;2022-10-31T05:14:02;14.83;;;6.57;;
20478;SDS011;10398;52.490;13.434;2022-10-31T05:16:28;16.63;;;6.97;;
20478;SDS011;10398;52.490;13.434;2022-10-31T05:18:53;16.10;;;6.93;;
20478;SDS011;10398;52.490;13.434;2022-10-31T05:21:19;14.17;;;6.40;;
20478;SDS011;10398;52.490;13.434;2022-10-31T05:23:45;16.20;;;7.03;;
20478;SDS011;10398;52.490;13.434;2022-10-31T05:26:10;14.50;;;6.53;;
20478;SDS011;10398;52.490;13.434;2022-10-31T05:28:36;14.00;;;6.93;;
20478;SDS011;10398;52.490;13.434;2022-10-31T05:31:02;13.73;;;6.63;;
20478;SDS011;10398;52.490;13.434;2022-10-31T05:33:27;19.37;;;6.93;;
20478;SDS011;10398;52.490;13.434;2022-10-31T05:35:53;14.40;;;6.50;;
20478;SDS011;10398;52.490;13.434;2022-10-31T05:38:19;14.13;;;6.80;;
20478;SDS011;10398;52.490;13.434;2022-10-31T05:40:44;14.27;;;6.83;;
20478;SDS011;10398;52.490;13.434;2022-10-31T05:43:10;17.47;;;7.33;;
20478;SDS011;10398;52.490;13.434;2022-10-31T05:45:35;17.63;;;6.70;;
20478;SDS011;10398;52.490;13.434;2022-10-31T05:48:01;18.73;;;8.07;;
20478;SDS011;10398;52.490;13.434;2022-10-31T05:50:28;13.47;;;7.47;;
20478;SDS011;10398;52.490;13.434;2022-10-31T05:52:59;16.97;;;7.10;;
20478;SDS011;10398;52.490;13.434;2022-10-31T05:55:26;15.83;;;7.03;;
20478;SDS011;10398;52.490;13.434;2022-10-31T05:57:52;15.87;;;7.77;;
20478;SDS011;10398;52.490;13.434;2022-10-31T06:00:19;16.83;;;6.90;;
20478;SDS011;10398;52.490;13.434;2022-10-31T06:02:45;16.97;;;6.47;;
20478;SDS011;10398;52.490;13.434;2022-10-31T06:05:11;15.23;;;7.40;;
20478;SDS011;10398;52.490;13.434;2022-10-31T06:07:37;17.70;;;7.50;;
20478;SDS011;10398;52.490;13.434;2022-10-31T06:10:04;13.10;;;6.63;;
20478;SDS011;10398;52.490;13.434;2022-10-31T06:12:31;19.43;;;7.20;;
20478;SDS011;10398;52.490;13.434;2022-10-31T06:15:02;14.97;;;6.40;;
20478;SDS011;10398;52.490;13.434;2022-10-31T06:17:29;14.67;;;6.60;;
20478;SDS011;10398;52.490;13.434;2022-10-31T06:19:55;16.43;;;7.60;;
20478;SDS011;10398;52.490;13.434;2022-10-31T06:22:21;15.70;;;7.33;;
20478;SDS011;10398;52.490;13.434;2022-10-31T06:24:46;16.93;;;7.70;;
20478;SDS011;10398;52.490;13.434;2022-10-31T06:27:12;13.17;;;6.90;;
20478;SDS011;10398;52.490;13.434;2022-10-31T06:29:37;16.10;;;7.07;;
20478;SDS011;10398;52.490;13.434;2022-10-31T06:32:03;19.07;;;7.50;;
20478;SDS011;10398;52.490;13.434;2022-10-31T06:34:29;15.73;;;7.40;;
20478;SDS011;10398;52.490;13.434;2022-10-31T06:36:54;13.27;;;7.17;;
20478;SDS011;10398;52.490;13.434;2022-10-31T06:39:20;18.17;;;7.77;;
20478;SDS011;10398;52.490;13.434;2022-10-31T06:41:47;18.27;;;7.40;;
20478;SDS011;10398;52.490;13.434;2022-10-31T06:44:13;20.40;;;7.57;;
20478;SDS011;10398;52.490;13.434;2022-10-31T06:46:38;20.00;;;7.17;;
20478;SDS011;10398;52.490;13.434;2022-10-31T06:49:04;20.27;;;7.13;;
20478;SDS011;10398;52.490;13.434;2022-10-31T06:51:30;15.07;;;6.73;;
20478;SDS011;10398;52.490;13.434;2022-10-31T06:53:55;16.90;;;7.97;;
20478;SDS011;10398;52.490;13.434;2022-10-31T06:56:21;16.00;;;7.43;;
20478;SDS011;10398;52.490;13.434;2022-10-31T06:58:46;16.97;;;7.30;;
20478;SDS011;10398;52.490;13.434;2022-10-31T07:01:12;16.90;;;7.23;;
20478;SDS011;10398;52.490;13.434;2022-10-31T07:03:38;18.10;;;8.13;;
20478;SDS011;10398;52.490;13.434;2022-10-31T07:06:03;19.23;;;8.07;;
20478;SDS011;10398;52.490;13.434;2022-10-31T07:08:29;16.00;;;6.80;;
20478;SDS011;10398;52.490;13.434;2022-10-31T07:10:55;13.77;;;7.67;;
20478;SDS011;10398;52.490;13.434;2022-10-31T07:13:22;19.57;;;8.00;;
20478;SDS011;10398;52.490;13.434;2022-10-31T07:15:50;26.13;;;8.80;;
20478;SDS011;10398;52.490;13.434;2022-10-31T07:18:18;18.43;;;8.37;;
20478;SDS011;10398;52.490;13.434;2022-10-31T07:20:44;13.93;;;6.70;;
20478;SDS011;10398;52.490;13.434;2022-10-31T07:23:10;18.50;;;8.67;;
20478;SDS011;10398;52.490;13.434;2022-10-31T07:25:36;23.67;;;8.90;;
20478;SDS011;10398;52.490;13.434;2022-10-31T07:28:05;29.37;;;9.33;;
20478;SDS011;10398;52.490;13.434;2022-10-31T07:30:32;23.03;;;9.47;;
20478;SDS011;10398;52.490;13.434;2022-10-31T07:32:57;23.27;;;9.10;;
20478;SDS011;10398;52.490;13.434;2022-10-31T07:35:25;18.37;;;8.20;;
20478;SDS011;10398;52.490;13.434;2022-10-31T07:37:52;22.07;;;8.10;;
20478;SDS011;10398;52.490;13.434;2022-10-31T07:40:18;18.13;;;7.80;;
20478;SDS011;10398;52.490;13.434;2022-10-31T07:42:45;16.50;;;7.70;;
20478;SDS011;10398;52.490;13.434;2022-10-31T07:45:13;20.93;;;8.00;;
20478;SDS011;10398;52.490;13.434;2022-10-31T07:47:44;21.40;;;8.40;;
20478;SDS011;10398;52.490;13.434;2022-10-31T07:50:15;14.83;;;7.60;;
20478;SDS011;10398;52.490;13.434;2022-10-31T07:52:45;23.50;;;9.75;;
20478;SDS011;10398;52.490;13.434;2022-10-31T07:55:11;20.25;;;8.82;;
20478;SDS011;10398;52.490;13.434;2022-10-31T07:57:37;19.83;;;8.50;;
20478;SDS011;10398;52.490;13.434;2022-10-31T08:00:03;23.40;;;8.17;;
20478;SDS011;10398;52.490;13.434;2022-10-31T08:02:30;19.67;;;8.00;;
20478;SDS011;10398;52.490;13.434;2022-10-31T08:04:56;19.15;;;8.00;;
20478;SDS011;10398;52.490;13.434;2022-10-31T08:07:21;21.75;;;8.95;;
20478;SDS011;10398;52.490;13.434;2022-10-31T08:09:47;16.95;;;8.75;;
20478;SDS011;10398;52.490;13.434;2022-10-31T08:12:14;19.90;;;9.18;;
20478;SDS011;10398;52.490;13.434;2022-10-31T08:14:39;18.37;;;9.00;;
20478;SDS011;10398;52.490;13.434;2022-10-31T08:17:05;25.23;;;10.07;;
20478;SDS011;10398;52.490;13.434;2022-10-31T08:19:30;18.23;;;8.98;;
20478;SDS011;10398;52.490;13.434;2022-10-31T08:21:56;16.65;;;8.88;;
20478;SDS011;10398;52.490;13.434;2022-10-31T08:24:23;25.85;;;9.50;;
20478;SDS011;10398;52.490;13.434;2022-10-31T08:26:48;24.42;;;9.85;;
20478;SDS011;10398;52.490;13.434;2022-10-31T08:29:14;31.33;;;11.13;;
20478;SDS011;10398;52.490;13.434;2022-10-31T08:31:40;27.05;;;10.13;;
20478;SDS011;10398;52.490;13.434;2022-10-31T08:34:06;22.48;;;9.80;;
20478;SDS011;10398;52.490;13.434;2022-10-31T08:36:32;20.17;;;9.38;;
20478;SDS011;10398;52.490;13.434;2022-10-31T08:38:58;25.60;;;9.95;;
20478;SDS011;10398;52.490;13.434;2022-10-31T08:41:23;24.02;;;10.95;;
20478;SDS011;10398;52.490;13.434;2022-10-31T08:43:49;28.20;;;13.05;;
20478;SDS011;10398;52.490;13.434;2022-10-31T08:46:14;23.33;;;10.93;;
20478;SDS011;10398;52.490;13.434;2022-10-31T08:48:40;26.30;;;11.18;;
20478;SDS011;10398;52.490;13.434;2022-10-31T08:51:06;20.45;;;10.18;;
20478;SDS011;10398;52.490;13.434;2022-10-31T08:53:33;25.88;;;10.00;;
20478;SDS011;10398;52.490;13.434;2022-10-31T08:55:58;23.92;;;10.63;;
20478;SDS011;10398;52.490;13.434;2022-10-31T08:58:24;27.02;;;10.73;;
20478;SDS011;10398;52.490;13.434;2022-10-31T09:00:51;32.85;;;15.00;;
20478;SDS011;10398;52.490;13.434;2022-10-31T09:03:22;28.67;;;12.38;;
20478;SDS011;10398;52.490;13.434;2022-10-31T09:05:50;27.85;;;11.20;;
20478;SDS011;10398;52.490;13.434;2022-10-31T09:08:19;28.08;;;11.30;;
20478;SDS011;10398;52.490;13.434;2022-10-31T09:10:44;28.98;;;10.23;;
20478;SDS011;10398;52.490;13.434;2022-10-31T09:13:15;27.50;;;10.75;;
20478;SDS011;10398;52.490;13.434;2022-10-31T09:15:45;25.95;;;10.80;;
20478;SDS011;10398;52.490;13.434;2022-10-31T09:18:12;25.70;;;11.35;;
20478;SDS011;10398;52.490;13.434;2022-10-31T09:20:39;24.00;;;11.65;;
20478;SDS011;10398;52.490;13.434;2022-10-31T09:23:09;27.52;;;12.13;;
20478;SDS011;10398;52.490;13.434;2022-10-31T09:25:36;31.80;;;12.65;;
20478;SDS011;10398;52.490;13.434;2022-10-31T09:28:02;24.92;;;11.38;;
20478;SDS011;10398;52.490;13.434;2022-10-31T09:30:30;25.63;;;11.80;;
20478;SDS011;10398;52.490;13.434;2022-10-31T09:33:04;35.28;;;13.50;;
20478;SDS011;10398;52.490;13.434;2022-10-31T09:35:34;23.90;;;11.57;;
20478;SDS011;10398;52.490;13.434;2022-10-31T09:38:00;22.95;;;11.15;;
20478;SDS011;10398;52.490;13.434;2022-10-31T09:40:31;22.92;;;11.10;;
20478;SDS011;10398;52.490;13.434;2022-10-31T09:43:04;23.73;;;10.93;;
20478;SDS011;10398;52.490;13.434;2022-10-31T09:48:17;25.35;;;10.70;;
20478;SDS011;10398;52.490;13.434;2022-10-31T09:53:51;24.88;;;10.88;;
20478;SDS011;10398;52.490;13.434;2022-10-31T09:56:25;26.40;;;12.73;;
20478;SDS011;10398;52.490;13.434;2022-10-31T09:58:53;25.85;;;11.52;;
20478;SDS011;10398;52.490;13.434;2022-10-31T10:01:32;23.90;;;11.48;;
20478;SDS011;10398;52.490;13.434;2022-10-31T10:06:46;27.45;;;12.55;;
20478;SDS011;10398;52.490;13.434;2022-10-31T10:09:15;26.65;;;11.48;;
20478;SDS011;10398;52.490;13.434;2022-10-31T10:11:45;27.83;;;11.63;;
20478;SDS011;10398;52.490;13.434;2022-10-31T10:14:49;28.55;;;11.70;;
20478;SDS011;10398;52.490;13.434;2022-10-31T10:17:29;25.85;;;11.38;;
20478;SDS011;10398;52.490;13.434;2022-10-31T10:26:05;23.70;;;10.93;;
20478;SDS011;10398;52.490;13.434;2022-10-31T10:28:56;27.23;;;11.35;;
20478;SDS011;10398;52.490;13.434;2022-10-31T10:31:40;28.48;;;12.60;;
20478;SDS011;10398;52.490;13.434;2022-10-31T10:34:22;30.55;;;12.48;;
20478;SDS011;10398;52.490;13.434;2022-10-31T10:37:00;27.77;;;13.27;;
20478;SDS011;10398;52.490;13.434;2022-10-31T10:39:32;28.85;;;12.30;;
20478;SDS011;10398;52.490;13.434;2022-10-31T10:42:10;30.38;;;12.50;;
20478;SDS011;10398;52.490;13.434;2022-10-31T10:44:57;38.95;;;16.50;;
20478;SDS011;10398;52.490;13.434;2022-10-31T10:47:43;31.58;;;13.48;;
20478;SDS011;10398;52.490;13.434;2022-10-31T10:50:19;29.38;;;12.57;;
20478;SDS011;10398;52.490;13.434;2022-10-31T10:52:49;29.98;;;13.88;;
20478;SDS011;10398;52.490;13.434;2022-10-31T10:58:03;34.28;;;12.10;;
20478;SDS011;10398;52.490;13.434;2022-10-31T11:00:38;31.65;;;13.25;;
20478;SDS011;10398;52.490;13.434;2022-10-31T11:03:03;24.77;;;11.70;;
20478;SDS011;10398;52.490;13.434;2022-10-31T11:05:35;25.55;;;11.80;;
20478;SDS011;10398;52.490;13.434;2022-10-31T11:08:30;27.65;;;11.73;;
20478;SDS011;10398;52.490;13.434;2022-10-31T11:11:04;28.15;;;12.30;;
20478;SDS011;10398;52.490;13.434;2022-10-31T11:13:39;31.02;;;12.68;;
20478;SDS011;10398;52.490;13.434;2022-10-31T11:18:37;26.15;;;12.30;;
20478;SDS011;10398;52.490;13.434;2022-10-31T11:21:04;27.58;;;12.50;;
20478;SDS011;10398;52.490;13.434;2022-10-31T11:23:31;29.67;;;11.32;;
20478;SDS011;10398;52.490;13.434;2022-10-31T11:26:05;33.35;;;13.18;;
20478;SDS011;10398;52.490;13.434;2022-10-31T11:28:42;31.10;;;12.75;;
20478;SDS011;10398;52.490;13.434;2022-10-31T11:31:11;32.60;;;13.45;;
20478;SDS011;10398;52.490;13.434;2022-10-31T11:33:45;25.52;;;13.38;;
20478;SDS011;10398;52.490;13.434;2022-10-31T11:38:46;28.45;;;11.95;;
20478;SDS011;10398;52.490;13.434;2022-10-31T11:41:14;36.00;;;14.98;;
20478;SDS011;10398;52.490;13.434;2022-10-31T11:44:10;36.10;;;12.75;;
20478;SDS011;10398;52.490;13.434;2022-10-31T11:49:25;30.90;;;13.05;;
20478;SDS011;10398;52.490;13.434;2022-10-31T11:51:55;25.33;;;12.95;;
20478;SDS011;10398;52.490;13.434;2022-10-31T11:54:29;28.45;;;12.05;;
20478;SDS011;10398;52.490;13.434;2022-10-31T11:57:02;30.73;;;12.60;;
20478;SDS011;10398;52.490;13.434;2022-10-31T11:59:31;27.92;;;12.27;;
20478;SDS011;10398;52.490;13.434;2022-10-31T12:01:58;25.75;;;12.55;;
20478;SDS011;10398;52.490;13.434;2022-10-31T12:04:31;28.20;;;13.10;;
20478;SDS011;10398;52.490;13.434;2022-10-31T12:07:02;25.70;;;11.68;;
20478;SDS011;10398;52.490;13.434;2022-10-31T12:09:29;28.20;;;13.45;;
20478;SDS011;10398;52.490;13.434;2022-10-31T12:17:29;29.35;;;12.95;;
20478;SDS011;10398;52.490;13.434;2022-10-31T12:23:14;27.67;;;12.25;;
20478;SDS011;10398;52.490;13.434;2022-10-31T12:25:52;24.17;;;12.27;;
20478;SDS011;10398;52.490;13.434;2022-10-31T12:28:48;29.38;;;11.55;;
20478;SDS011;10398;52.490;13.434;2022-10-31T12:31:43;24.65;;;13.00;;
20478;SDS011;10398;52.490;13.434;2022-10-31T12:39:58;28.88;;;13.23;;
20478;SDS011;10398;52.490;13.434;2022-10-31T12:45:16;28.85;;;12.68;;
20478;SDS011;10398;52.490;13.434;2022-10-31T12:47:52;31.50;;;12.90;;
20478;SDS011;10398;52.490;13.434;2022-10-31T12:50:56;26.60;;;12.05;;
20478;SDS011;10398;52.490;13.434;2022-10-31T12:53:38;28.35;;;12.57;;
20478;SDS011;10398;52.490;13.434;2022-10-31T12:56:18;27.60;;;12.52;;
20478;SDS011;10398;52.490;13.434;2022-10-31T12:59:00;31.15;;;12.77;;
20478;SDS011;10398;52.490;13.434;2022-10-31T13:01:34;29.95;;;14.27;;
20478;SDS011;10398;52.490;13.434;2022-10-31T13:04:14;29.17;;;13.40;;
20478;SDS011;10398;52.490;13.434;2022-10-31T13:06:44;29.77;;;13.38;;
20478;SDS011;10398;52.490;13.434;2022-10-31T13:09:19;25.88;;;13.70;;
20478;SDS011;10398;52.490;13.434;2022-10-31T13:11:54;30.15;;;14.43;;
20478;SDS011;10398;52.490;13.434;2022-10-31T13:14:25;42.17;;;16.50;;
20478;SDS011;10398;52.490;13.434;2022-10-31T13:16:54;37.63;;;14.60;;
20478;SDS011;10398;52.490;13.434;2022-10-31T13:19:31;34.72;;;15.20;;
20478;SDS011;10398;52.490;13.434;2022-10-31T13:22:04;32.80;;;13.85;;
20478;SDS011;10398;52.490;13.434;2022-10-31T13:24:41;31.77;;;14.93;;
20478;SDS011;10398;52.490;13.434;2022-10-31T13:27:22;28.00;;;14.07;;
20478;SDS011;10398;52.490;13.434;2022-10-31T13:30:24;32.38;;;12.55;;
20478;SDS011;10398;52.490;13.434;2022-10-31T13:32:55;31.60;;;14.65;;
20478;SDS011;10398;52.490;13.434;2022-10-31T13:41:01;29.58;;;14.13;;
20478;SDS011;10398;52.490;13.434;2022-10-31T13:43:46;43.67;;;15.88;;
20478;SDS011;10398;52.490;13.434;2022-10-31T13:46:34;31.30;;;14.70;;
20478;SDS011;10398;52.490;13.434;2022-10-31T13:49:02;33.28;;;14.20;;
20478;SDS011;10398;52.490;13.434;2022-10-31T13:51:29;30.98;;;14.10;;
20478;SDS011;10398;52.490;13.434;2022-10-31T13:56:24;33.63;;;14.55;;
20478;SDS011;10398;52.490;13.434;2022-10-31T13:59:02;34.40;;;14.80;;
20478;SDS011;10398;52.490;13.434;2022-10-31T14:01:32;37.42;;;15.88;;
20478;SDS011;10398;52.490;13.434;2022-10-31T14:03:59;36.42;;;14.80;;
20478;SDS011;10398;52.490;13.434;2022-10-31T14:11:48;36.75;;;14.68;;
20478;SDS011;10398;52.490;13.434;2022-10-31T14:14:15;29.67;;;14.02;;
20478;SDS011;10398;52.490;13.434;2022-10-31T14:16:42;32.35;;;15.40;;
20478;SDS011;10398;52.490;13.434;2022-10-31T14:19:16;37.88;;;15.93;;
20478;SDS011;10398;52.490;13.434;2022-10-31T14:21:45;37.63;;;16.17;;
20478;SDS011;10398;52.490;13.434;2022-10-31T14:24:30;39.72;;;15.25;;
20478;SDS011;10398;52.490;13.434;2022-10-31T14:26:58;29.63;;;14.30;;
20478;SDS011;10398;52.490;13.434;2022-10-31T14:29:27;32.92;;;14.23;;
20478;SDS011;10398;52.490;13.434;2022-10-31T14:34:57;29.85;;;13.35;;
20478;SDS011;10398;52.490;13.434;2022-10-31T14:43:00;43.35;;;16.10;;
20478;SDS011;10398;52.490;13.434;2022-10-31T14:48:24;39.33;;;17.98;;
20478;SDS011;10398;52.490;13.434;2022-10-31T14:50:59;31.75;;;15.20;;
20478;SDS011;10398;52.490;13.434;2022-10-31T14:53:31;39.88;;;16.30;;
20478;SDS011;10398;52.490;13.434;2022-10-31T14:55:59;35.67;;;15.85;;
20478;SDS011;10398;52.490;13.434;2022-10-31T15:01:00;40.22;;;17.45;;
20478;SDS011;10398;52.490;13.434;2022-10-31T15:03:33;41.08;;;19.63;;
20478;SDS011;10398;52.490;13.434;2022-10-31T15:06:11;39.05;;;18.98;;
20478;SDS011;10398;52.490;13.434;2022-10-31T15:08:46;45.35;;;20.30;;
20478;SDS011;10398;52.490;13.434;2022-10-31T15:11:14;49.53;;;20.45;;
20478;SDS011;10398;52.490;13.434;2022-10-31T15:13:42;44.97;;;20.02;;
20478;SDS011;10398;52.490;13.434;2022-10-31T15:16:08;44.78;;;18.27;;
20478;SDS011;10398;52.490;13.434;2022-10-31T15:18:36;38.90;;;18.10;;
20478;SDS011;10398;52.490;13.434;2022-10-31T15:21:10;44.88;;;19.02;;
20478;SDS011;10398;52.490;13.434;2022-10-31T15:23:41;39.92;;;19.27;;
20478;SDS011;10398;52.490;13.434;2022-10-31T15:26:11;43.88;;;19.83;;
20478;SDS011;10398;52.490;13.434;2022-10-31T15:28:42;45.92;;;19.35;;
20478;SDS011;10398;52.490;13.434;2022-10-31T15:31:17;38.65;;;18.42;;
20478;SDS011;10398;52.490;13.434;2022-10-31T15:33:44;44.97;;;18.35;;
20478;SDS011;10398;52.490;13.434;2022-10-31T15:38:51;46.25;;;17.98;;
20478;SDS011;10398;52.490;13.434;2022-10-31T15:44:14;42.58;;;17.38;;
20478;SDS011;10398;52.490;13.434;2022-10-31T15:46:51;41.70;;;18.25;;
20478;SDS011;10398;52.490;13.434;2022-10-31T15:49:35;41.30;;;17.90;;
20478;SDS011;10398;52.490;13.434;2022-10-31T15:52:14;40.28;;;17.45;;
20478;SDS011;10398;52.490;13.434;2022-10-31T15:55:00;43.45;;;17.98;;
20478;SDS011;10398;52.490;13.434;2022-10-31T15:57:28;42.00;;;18.02;;
20478;SDS011;10398;52.490;13.434;2022-10-31T15:59:55;45.50;;;18.77;;
20478;SDS011;10398;52.490;13.434;2022-10-31T16:02:22;74.70;;;28.20;;
20478;SDS011;10398;52.490;13.434;2022-10-31T16:04:50;57.05;;;25.15;;
20478;SDS011;10398;52.490;13.434;2022-10-31T16:07:17;41.50;;;19.67;;
20478;SDS011;10398;52.490;13.434;2022-10-31T16:09:55;41.90;;;19.15;;
20478;SDS011;10398;52.490;13.434;2022-10-31T16:12:22;50.63;;;19.50;;
20478;SDS011;10398;52.490;13.434;2022-10-31T16:14:53;44.25;;;18.40;;
20478;SDS011;10398;52.490;13.434;2022-10-31T16:17:20;44.05;;;19.13;;
20478;SDS011;10398;52.490;13.434;2022-10-31T16:19:56;44.75;;;18.98;;
20478;SDS011;10398;52.490;13.434;2022-10-31T16:22:35;47.50;;;18.98;;